Main page
Satellite images 10-day forecastsClimateMarine weather Cyclones Lightning AirportsFAQ Newsletter About
Weather : Europe Africa North America South America Asia Australia-Oceania Others
Languages Contact

Birmingham, England

Birmingham Airport

latitude: 52-27N, longitude: 001-44W, elevation: 99 m


METAR: EGBB 250850Z 31009KT 9999 SCT028 BKN043 12/04 Q1019
TAF: EGBB 250458Z 2506/2606 30006KT 9999 FEW035 PROB30 TEMPO 2603/2606 BKN010

Time: 10:12 (09:12 UTC)

Current weather observation

The report was made 22 minutes ago, at 08:50 UTC
Wind 9 kt from the Northwest
Temperature 12°C
Humidity 58%
Pressure 1019 hPa
Visibility 10 km or more
Scattered clouds at a height of 2800 ft
Broken clouds at a height of 4300 ft

Change units

Forecast

The report was made 4 hours and 14 minutes ago, at 04:58 UTC
Forecast valid from 25 at 06 UTC to 26 at 06 UTC
Wind 6 kt from the West/Northwest
Visibility 10 km or more
Few clouds at a height of 3500 ft
Probability 30% :
Temporary
from 26 at 03 UTC to 26 at 06 UTC
Broken clouds at a height of 1000 ft
The information on this site is subject to a disclaimer
Weather : Europe Africa North America South America Asia Australia-Oceania Others
Satellite images 10-day forecastsClimateMarine weather Cyclones Lightning AirportsFAQ Languages Contact Newsletter About